Time;durP1;ratioP1;P1;durP2;ratioP2;P2;SDS_P1;SDS_P2;PMS_P1;PMS_P2;Temp;Humidity;BMP_temperature;BMP_pressure;BME280_temperature;BME280_humidity;BME280_pressure;Samples;Min_cycle;Max_cycle;Signal;HPM_P1;HPM_P2
2022/11/23 00:01:14;;;;;;;28.08;16.63;;;;;;;;;;4988310;28;98285;-69
2022/11/23 00:03:40;;;;;;;22.45;16.88;;;;;;;;;;4987312;28;99549;-69
2022/11/23 00:06:07;;;;;;;29.17;17.98;;;;;;;;;;4987480;28;99930;-69
2022/11/23 00:08:33;;;;;;;26.90;18.88;;;;;;;;;;4986229;28;98328;-69
2022/11/23 00:10:59;;;;;;;34.08;18.92;;;;;;;;;;4987752;28;99397;-69
2022/11/23 00:13:26;;;;;;;31.95;19.17;;;;;;;;;;4986437;28;98956;-70
2022/11/23 00:15:52;;;;;;;25.85;17.20;;;;;;;;;;4987598;28;98780;-69
2022/11/23 00:18:18;;;;;;;34.10;19.67;;;;;;;;;;4991499;28;99754;-69
2022/11/23 00:20:45;;;;;;;33.58;20.60;;;;;;;;;;4999622;28;99551;-70
2022/11/23 00:23:11;;;;;;;30.65;19.38;;;;;;;;;;5006528;28;98686;-69
2022/11/23 00:25:37;;;;;;;30.83;20.38;;;;;;;;;;5007433;28;99982;-70
2022/11/23 00:28:04;;;;;;;33.38;21.85;;;;;;;;;;5007227;28;98404;-69
2022/11/23 00:30:31;;;;;;;32.45;19.98;;;;;;;;;;5007250;28;99570;-70
2022/11/23 00:32:57;;;;;;;34.28;22.33;;;;;;;;;;5007047;28;98949;-70
2022/11/23 00:35:23;;;;;;;37.05;22.48;;;;;;;;;;4982105;28;98876;-70
2022/11/23 00:37:50;;;;;;;38.05;21.95;;;;;;;;;;4987879;28;98955;-70
2022/11/23 00:40:16;;;;;;;28.88;21.92;;;;;;;;;;4988306;28;99266;-70
2022/11/23 00:42:42;;;;;;;34.35;22.05;;;;;;;;;;5007026;28;99638;-70
2022/11/23 00:45:09;;;;;;;38.15;23.58;;;;;;;;;;5007316;28;100226;-70
2022/11/23 00:47:35;;;;;;;33.67;22.70;;;;;;;;;;5006725;28;98283;-70
2022/11/23 00:50:03;;;;;;;36.83;24.77;;;;;;;;;;5005983;28;101289;-70
2022/11/23 00:52:30;;;;;;;39.72;24.20;;;;;;;;;;4999992;28;98903;-70
2022/11/23 00:54:56;;;;;;;40.63;25.60;;;;;;;;;;4968952;28;98374;-70
2022/11/23 00:57:23;;;;;;;43.72;26.00;;;;;;;;;;4986436;28;98459;-70
2022/11/23 00:59:49;;;;;;;40.22;26.40;;;;;;;;;;4969188;28;100267;-70
2022/11/23 01:02:15;;;;;;;40.72;25.27;;;;;;;;;;4989591;28;98129;-70
2022/11/23 01:04:42;;;;;;;36.13;25.05;;;;;;;;;;4968648;28;101653;-70
2022/11/23 01:07:08;;;;;;;43.13;27.70;;;;;;;;;;4986499;28;98458;-70
2022/11/23 01:09:34;;;;;;;42.33;27.88;;;;;;;;;;4986604;28;98681;-70
2022/11/23 01:12:01;;;;;;;40.28;27.35;;;;;;;;;;4968793;28;100140;-70
2022/11/23 01:14:27;;;;;;;48.67;28.13;;;;;;;;;;4987215;28;98253;-70
2022/11/23 01:16:54;;;;;;;44.75;27.15;;;;;;;;;;4986616;28;99375;-70
2022/11/23 01:19:20;;;;;;;42.90;26.25;;;;;;;;;;4986720;28;99043;-70
2022/11/23 01:21:47;;;;;;;35.45;23.80;;;;;;;;;;5004029;28;98430;-69
2022/11/23 02:46:49;;;;;;;22.90;12.93;;;;;;;;;;5006489;28;98979;-69
2022/11/23 02:49:16;;;;;;;21.08;12.20;;;;;;;;;;5009116;28;98428;-70
2022/11/23 02:51:42;;;;;;;24.05;14.15;;;;;;;;;;4999270;28;99786;-70
2022/11/23 02:54:09;;;;;;;20.00;12.75;;;;;;;;;;4976658;28;100131;-69
2022/11/23 02:56:36;;;;;;;24.33;14.13;;;;;;;;;;4990759;28;98606;-70
2022/11/23 02:59:03;;;;;;;26.77;14.90;;;;;;;;;;4991258;28;98677;-69
2022/11/23 03:01:29;;;;;;;30.38;14.60;;;;;;;;;;5007315;28;99991;-69
2022/11/23 03:03:56;;;;;;;23.35;14.35;;;;;;;;;;5008934;28;98102;-69
2022/11/23 03:06:22;;;;;;;22.58;13.57;;;;;;;;;;5011545;28;98851;-69
2022/11/23 03:08:48;;;;;;;18.42;12.23;;;;;;;;;;4999197;28;98134;-69
2022/11/23 03:11:16;;;;;;;22.95;13.75;;;;;;;;;;4971085;28;100485;-69
2022/11/23 03:13:43;;;;;;;20.08;14.50;;;;;;;;;;4970236;28;101446;-69
2022/11/23 03:16:10;;;;;;;18.55;13.40;;;;;;;;;;4969549;28;98816;-69
2022/11/23 03:18:36;;;;;;;18.92;12.23;;;;;;;;;;5005283;28;99517;-70
2022/11/23 03:21:04;;;;;;;27.80;13.45;;;;;;;;;;4990484;28;101507;-70
2022/11/23 03:23:30;;;;;;;23.98;12.38;;;;;;;;;;4989764;28;98305;-69
2022/11/23 03:26:00;;;;;;;22.83;13.68;;;;;;;;;;4990022;28;100681;-69
2022/11/23 03:28:33;;;;;;;22.67;13.65;;;;;;;;;;5009529;28;98479;-69
2022/11/23 03:31:00;;;;;;;21.00;11.73;;;;;;;;;;4990162;28;98576;-69
2022/11/23 03:33:27;;;;;;;17.83;11.88;;;;;;;;;;4990393;28;100858;-69
2022/11/23 03:35:53;;;;;;;13.63;10.80;;;;;;;;;;5007071;28;98375;-69
2022/11/23 03:38:24;;;;;;;15.00;11.48;;;;;;;;;;4989406;28;100148;-70
2022/11/23 03:40:51;;;;;;;16.88;10.93;;;;;;;;;;4994713;28;100178;-70
2022/11/23 03:43:21;;;;;;;17.48;10.95;;;;;;;;;;4974758;28;98373;-70
2022/11/23 03:45:48;;;;;;;15.55;10.63;;;;;;;;;;4988844;28;99487;-70
2022/11/23 03:48:14;;;;;;;14.85;10.68;;;;;;;;;;4973417;28;101640;-70
2022/11/23 03:50:41;;;;;;;16.98;10.48;;;;;;;;;;4969015;28;100714;-70
2022/11/23 03:53:08;;;;;;;22.85;10.70;;;;;;;;;;4970268;28;101109;-70
2022/11/23 03:55:34;;;;;;;14.98;10.05;;;;;;;;;;4969979;28;98572;-70
2022/11/23 03:58:02;;;;;;;25.73;11.45;;;;;;;;;;4969594;28;100980;-69
2022/11/23 04:00:32;;;;;;;18.15;10.65;;;;;;;;;;4970372;28;100172;-69
2022/11/23 04:02:59;;;;;;;15.02;11.05;;;;;;;;;;4969960;28;98337;-69
2022/11/23 04:05:46;;;;;;;14.43;10.07;;;;;;;;;;4954956;28;98364;-70
2022/11/23 04:08:31;;;;;;;12.40;9.88;;;;;;;;;;4969756;28;101407;-69
2022/11/23 04:10:58;;;;;;;16.60;10.00;;;;;;;;;;4973306;28;98317;-69
2022/11/23 04:13:50;;;;;;;14.97;9.37;;;;;;;;;;4985845;28;99508;-70
2022/11/23 04:16:17;;;;;;;12.45;9.05;;;;;;;;;;5003348;28;98966;-69
2022/11/23 04:18:44;;;;;;;14.00;9.00;;;;;;;;;;4968806;28;100699;-70
2022/11/23 04:21:11;;;;;;;19.48;9.13;;;;;;;;;;4969930;28;101363;-70
2022/11/23 04:23:37;;;;;;;16.75;9.02;;;;;;;;;;4987882;28;98286;-69
2022/11/23 04:26:07;;;;;;;12.45;7.90;;;;;;;;;;4969091;28;101531;-69
2022/11/23 04:28:37;;;;;;;13.18;8.50;;;;;;;;;;5002685;28;99901;-69
2022/11/23 04:31:04;;;;;;;20.10;8.20;;;;;;;;;;4968851;28;98311;-69
2022/11/23 04:33:41;;;;;;;13.10;8.25;;;;;;;;;;4972736;28;100507;-70
2022/11/23 04:36:07;;;;;;;13.02;7.85;;;;;;;;;;4987858;28;98922;-69
2022/11/23 04:38:34;;;;;;;15.07;8.15;;;;;;;;;;4968968;28;100670;-69
2022/11/23 04:41:01;;;;;;;21.33;8.40;;;;;;;;;;4984630;28;99975;-70
2022/11/23 04:43:27;;;;;;;14.13;8.50;;;;;;;;;;4989345;28;98826;-70
2022/11/23 04:45:54;;;;;;;18.95;8.07;;;;;;;;;;4988669;28;101119;-70
2022/11/23 04:48:27;;;;;;;14.13;7.97;;;;;;;;;;4988721;28;99049;-70
2022/11/23 04:50:55;;;;;;;8.75;7.07;;;;;;;;;;4978745;28;98613;-70
2022/11/23 04:53:33;;;;;;;16.33;6.85;;;;;;;;;;5002107;28;99274;-70
2022/11/23 04:56:00;;;;;;;21.15;6.75;;;;;;;;;;5005089;28;101550;-70
2022/11/23 04:58:29;;;;;;;18.08;7.32;;;;;;;;;;5003123;28;100376;-69
2022/11/23 05:01:00;;;;;;;14.98;7.50;;;;;;;;;;4968376;28;101513;-69
2022/11/23 05:03:27;;;;;;;14.75;7.00;;;;;;;;;;4967967;28;98416;-70
2022/11/23 05:05:56;;;;;;;11.27;6.80;;;;;;;;;;5002571;28;99636;-70
2022/11/23 05:08:23;;;;;;;17.67;7.60;;;;;;;;;;5001685;28;101473;-70
2022/11/23 05:11:03;;;;;;;14.48;7.15;;;;;;;;;;4969131;28;98305;-69
2022/11/23 05:13:29;;;;;;;18.58;7.35;;;;;;;;;;4968962;28;98518;-70
2022/11/23 05:15:56;;;;;;;17.23;7.40;;;;;;;;;;4968599;28;99181;-70
2022/11/23 05:18:26;;;;;;;21.90;7.28;;;;;;;;;;4972059;28;98485;-70
2022/11/23 05:20:52;;;;;;;20.23;7.07;;;;;;;;;;4967584;28;101184;-69
2022/11/23 05:23:19;;;;;;;19.63;7.55;;;;;;;;;;5001456;28;98250;-69
2022/11/23 05:25:46;;;;;;;15.35;7.00;;;;;;;;;;4987113;28;99297;-69
2022/11/23 05:28:16;;;;;;;24.42;8.23;;;;;;;;;;4968565;28;101812;-69
2022/11/23 05:31:03;;;;;;;21.63;7.55;;;;;;;;;;4969420;28;98890;-69
2022/11/23 05:33:29;;;;;;;19.98;7.72;;;;;;;;;;4968659;28;101314;-70
2022/11/23 05:35:56;;;;;;;17.40;9.10;;;;;;;;;;4967855;28;101636;-70
2022/11/23 05:38:33;;;;;;;10.30;5.78;;;;;;;;;;5005422;28;98541;-69
2022/11/23 05:41:02;;;;;;;12.25;7.30;;;;;;;;;;5004408;28;101006;-69
2022/11/23 05:43:29;;;;;;;16.98;7.30;;;;;;;;;;4985587;28;98369;-70
2022/11/23 05:45:59;;;;;;;16.40;6.45;;;;;;;;;;4984200;28;101182;-69
2022/11/23 05:48:26;;;;;;;16.50;6.20;;;;;;;;;;4968157;28;100392;-69
2022/11/23 05:50:56;;;;;;;18.88;6.10;;;;;;;;;;4967524;28;98309;-68
2022/11/23 05:53:33;;;;;;;17.23;7.22;;;;;;;;;;4968245;28;100926;-69
2022/11/23 05:56:07;;;;;;;16.95;6.78;;;;;;;;;;4968413;28;101928;-70
2022/11/23 05:58:42;;;;;;;14.00;6.85;;;;;;;;;;4968427;28;98377;-69
2022/11/23 06:01:09;;;;;;;15.05;6.55;;;;;;;;;;4971616;28;99496;-69
2022/11/23 06:03:37;;;;;;;16.85;7.10;;;;;;;;;;4968278;28;98551;-70
2022/11/23 06:06:05;;;;;;;17.88;7.93;;;;;;;;;;4968167;28;98566;-69
2022/11/23 06:08:37;;;;;;;16.90;8.00;;;;;;;;;;4968073;28;98970;-69
2022/11/23 06:11:03;;;;;;;15.23;6.15;;;;;;;;;;4966888;28;98360;-70
2022/11/23 06:13:31;;;;;;;13.85;7.00;;;;;;;;;;5001788;28;99209;-70
2022/11/23 06:15:58;;;;;;;20.92;6.63;;;;;;;;;;4972453;28;101118;-70
2022/11/23 06:18:31;;;;;;;16.38;7.47;;;;;;;;;;4970772;28;98369;-69
2022/11/23 06:20:59;;;;;;;15.30;6.70;;;;;;;;;;4989963;28;98499;-70
2022/11/23 06:23:26;;;;;;;19.00;7.47;;;;;;;;;;4974541;28;101877;-70
2022/11/23 06:25:57;;;;;;;15.27;6.20;;;;;;;;;;4971177;28;100677;-70
2022/11/23 06:28:26;;;;;;;16.48;6.40;;;;;;;;;;4971786;28;99671;-70
2022/11/23 06:30:54;;;;;;;15.95;6.13;;;;;;;;;;5004487;28;98348;-70
2022/11/23 06:33:21;;;;;;;29.25;7.05;;;;;;;;;;4971615;28;100410;-70
2022/11/23 06:35:55;;;;;;;25.60;6.13;;;;;;;;;;5003704;28;101712;-70
2022/11/23 06:38:25;;;;;;;19.02;5.47;;;;;;;;;;4986415;28;98266;-70
2022/11/23 06:41:01;;;;;;;9.70;4.80;;;;;;;;;;4980615;28;101004;-70
2022/11/23 06:43:29;;;;;;;17.70;5.22;;;;;;;;;;4983440;28;98959;-70
2022/11/23 06:45:56;;;;;;;16.20;5.05;;;;;;;;;;4992619;28;98442;-70
2022/11/23 06:48:26;;;;;;;12.02;4.30;;;;;;;;;;4990254;28;101372;-70
2022/11/23 06:50:57;;;;;;;19.25;4.70;;;;;;;;;;4990386;28;98441;-70
2022/11/23 06:53:23;;;;;;;15.48;5.55;;;;;;;;;;4989345;28;101036;-70
2022/11/23 06:55:58;;;;;;;18.75;4.45;;;;;;;;;;4989956;28;101208;-70
2022/11/23 06:58:26;;;;;;;11.15;4.38;;;;;;;;;;4989345;28;98267;-70
2022/11/23 07:00:53;;;;;;;14.90;3.95;;;;;;;;;;4987264;28;99317;-70
2022/11/23 07:03:23;;;;;;;12.60;4.05;;;;;;;;;;4990457;28;99963;-70
2022/11/23 07:05:57;;;;;;;17.17;4.40;;;;;;;;;;4989361;28;98550;-70
2022/11/23 07:08:26;;;;;;;16.52;4.00;;;;;;;;;;4990001;28;100747;-71
2022/11/23 07:10:58;;;;;;;18.23;4.30;;;;;;;;;;5005291;28;98265;-70
2022/11/23 07:13:24;;;;;;;17.92;4.97;;;;;;;;;;4990141;28;100744;-70
2022/11/23 07:15:51;;;;;;;15.18;4.80;;;;;;;;;;5006957;28;98920;-71
2022/11/23 07:18:17;;;;;;;21.00;4.50;;;;;;;;;;4985732;28;98379;-70
2022/11/23 07:20:50;;;;;;;13.43;3.95;;;;;;;;;;4984458;28;98595;-70
2022/11/23 07:23:16;;;;;;;21.55;4.85;;;;;;;;;;5003016;28;99058;-70
2022/11/23 07:25:43;;;;;;;15.73;4.05;;;;;;;;;;4989061;28;99903;-70
2022/11/23 07:28:11;;;;;;;22.25;5.00;;;;;;;;;;4989238;28;100582;-70
2022/11/23 07:30:37;;;;;;;18.45;5.35;;;;;;;;;;4993099;28;102419;-70
2022/11/23 07:33:04;;;;;;;14.75;5.22;;;;;;;;;;5008513;28;98294;-70
2022/11/23 07:35:34;;;;;;;19.90;4.38;;;;;;;;;;5007011;28;99933;-69
2022/11/23 07:38:01;;;;;;;20.27;3.50;;;;;;;;;;5008227;28;98260;-69
2022/11/23 07:40:28;;;;;;;22.48;5.43;;;;;;;;;;5001986;28;98995;-68
2022/11/23 07:43:01;;;;;;;15.48;3.40;;;;;;;;;;4987365;28;98839;-68
2022/11/23 07:45:27;;;;;;;18.08;3.75;;;;;;;;;;4998721;28;99114;-69
2022/11/23 07:48:02;;;;;;;18.13;4.57;;;;;;;;;;4988824;28;100867;-69
2022/11/23 07:50:29;;;;;;;16.50;3.63;;;;;;;;;;4980678;28;101216;-69
2022/11/23 07:52:55;;;;;;;19.70;4.00;;;;;;;;;;5006334;28;98705;-69
2022/11/23 07:55:22;;;;;;;14.60;3.88;;;;;;;;;;5000656;28;99916;-69
2022/11/23 07:57:52;;;;;;;33.42;5.10;;;;;;;;;;4999458;28;98371;-70
2022/11/23 08:00:19;;;;;;;28.10;4.03;;;;;;;;;;4998863;28;98840;-69
2022/11/23 08:02:45;;;;;;;49.10;5.03;;;;;;;;;;4986830;28;99089;-68
2022/11/23 08:05:32;;;;;;;11.02;3.10;;;;;;;;;;4993363;28;98334;-69
2022/11/23 08:07:58;;;;;;;13.18;3.58;;;;;;;;;;5007719;28;100798;-69
2022/11/23 08:10:28;;;;;;;18.60;3.88;;;;;;;;;;5005794;28;100523;-69
2022/11/23 08:12:58;;;;;;;22.42;4.85;;;;;;;;;;5010728;28;98819;-68
2022/11/23 08:15:26;;;;;;;14.70;4.55;;;;;;;;;;5005558;28;99023;-69
2022/11/23 08:17:54;;;;;;;13.15;3.67;;;;;;;;;;5007288;28;98945;-69
2022/11/23 08:20:21;;;;;;;21.05;4.15;;;;;;;;;;5005700;28;99296;-69
2022/11/23 08:22:47;;;;;;;17.45;4.32;;;;;;;;;;5004399;28;99244;-70
2022/11/23 08:25:13;;;;;;;12.48;3.10;;;;;;;;;;5005473;28;99778;-69
2022/11/23 08:27:40;;;;;;;21.15;4.10;;;;;;;;;;5002165;28;99312;-69
2022/11/23 08:30:07;;;;;;;13.32;3.53;;;;;;;;;;5000237;28;99981;-69
2022/11/23 08:32:33;;;;;;;15.63;4.22;;;;;;;;;;5005484;28;98475;-71
2022/11/23 08:34:59;;;;;;;18.95;4.15;;;;;;;;;;5006578;28;98566;-70
2022/11/23 08:37:26;;;;;;;18.48;3.80;;;;;;;;;;5006368;28;98080;-69
2022/11/23 08:39:52;;;;;;;22.05;3.65;;;;;;;;;;5003711;28;99490;-69
2022/11/23 08:42:18;;;;;;;25.40;4.40;;;;;;;;;;5007340;28;100085;-69
2022/11/23 08:44:45;;;;;;;15.40;3.35;;;;;;;;;;5005953;28;98733;-69
2022/11/23 08:47:11;;;;;;;15.68;3.65;;;;;;;;;;5005045;28;99989;-69
2022/11/23 08:49:37;;;;;;;18.98;3.67;;;;;;;;;;4999393;28;99006;-69
2022/11/23 08:52:04;;;;;;;17.88;4.68;;;;;;;;;;5005273;28;98285;-69
2022/11/23 08:54:30;;;;;;;21.95;5.05;;;;;;;;;;5003947;28;98682;-69
2022/11/23 08:56:57;;;;;;;29.73;3.75;;;;;;;;;;5010467;28;99846;-69
2022/11/23 08:59:23;;;;;;;17.38;3.30;;;;;;;;;;5006619;28;99349;-69
2022/11/23 09:01:50;;;;;;;72.10;6.03;;;;;;;;;;5003971;28;99653;-71
2022/11/23 09:04:16;;;;;;;49.15;7.82;;;;;;;;;;5005358;28;98270;-69
2022/11/23 09:06:47;;;;;;;18.98;4.40;;;;;;;;;;4998641;28;101188;-69
2022/11/23 09:09:13;;;;;;;17.38;3.20;;;;;;;;;;5004859;28;100227;-68
2022/11/23 09:11:40;;;;;;;15.43;3.67;;;;;;;;;;4995479;28;100128;-69
2022/11/23 09:14:06;;;;;;;19.75;3.83;;;;;;;;;;5006069;28;99395;-68
2022/11/23 09:16:32;;;;;;;20.67;4.22;;;;;;;;;;5002481;28;99134;-69
2022/11/23 09:18:59;;;;;;;16.23;4.93;;;;;;;;;;5004411;28;100464;-68
2022/11/23 09:21:32;;;;;;;19.02;4.18;;;;;;;;;;5002543;28;100093;-69
2022/11/23 09:23:58;;;;;;;9.93;3.38;;;;;;;;;;5006777;28;98165;-69
2022/11/23 09:26:25;;;;;;;17.38;3.78;;;;;;;;;;5005498;28;99599;-69
2022/11/23 09:28:52;;;;;;;15.43;3.35;;;;;;;;;;4999210;28;100085;-69
2022/11/23 09:31:18;;;;;;;17.58;3.47;;;;;;;;;;5002718;28;99021;-69
2022/11/23 09:33:44;;;;;;;15.38;3.60;;;;;;;;;;5005146;28;99654;-70
2022/11/23 09:36:11;;;;;;;17.98;3.50;;;;;;;;;;5005241;28;99023;-70
2022/11/23 09:38:37;;;;;;;13.95;3.78;;;;;;;;;;5004620;28;98769;-69
2022/11/23 09:41:24;;;;;;;13.02;3.13;;;;;;;;;;5008007;28;101452;-70
2022/11/23 09:44:00;;;;;;;20.75;3.60;;;;;;;;;;5002885;28;98610;-70
2022/11/23 09:46:39;;;;;;;18.50;4.07;;;;;;;;;;5005546;28;99442;-70
2022/11/23 09:49:29;;;;;;;11.63;3.45;;;;;;;;;;4999386;28;100318;-69
2022/11/23 09:51:55;;;;;;;17.00;3.00;;;;;;;;;;4960338;28;99500;-69
2022/11/23 09:54:25;;;;;;;14.38;3.25;;;;;;;;;;5005851;28;99656;-69
2022/11/23 09:56:53;;;;;;;14.43;3.47;;;;;;;;;;5006367;28;100526;-69
2022/11/23 09:59:33;;;;;;;13.00;2.92;;;;;;;;;;5007270;28;99091;-69
2022/11/23 10:01:59;;;;;;;15.90;4.43;;;;;;;;;;5011515;28;98719;-69
2022/11/23 10:04:28;;;;;;;15.98;4.63;;;;;;;;;;4999057;28;100443;-69
2022/11/23 10:06:57;;;;;;;18.80;3.78;;;;;;;;;;5001977;28;99362;-69
2022/11/23 10:09:27;;;;;;;15.27;3.75;;;;;;;;;;5007679;28;100365;-69
2022/11/23 10:12:04;;;;;;;8.02;2.88;;;;;;;;;;5005704;28;98386;-69
2022/11/23 10:14:30;;;;;;;16.83;3.92;;;;;;;;;;5004303;28;98578;-69
2022/11/23 10:17:15;;;;;;;21.00;3.97;;;;;;;;;;4997689;28;100173;-69
2022/11/23 10:20:01;;;;;;;13.50;3.50;;;;;;;;;;5006926;28;98298;-69
2022/11/23 10:22:27;;;;;;;13.43;3.00;;;;;;;;;;5006795;28;100116;-68
2022/11/23 10:24:54;;;;;;;15.65;3.10;;;;;;;;;;5009433;28;99381;-70
2022/11/23 10:27:22;;;;;;;13.75;2.90;;;;;;;;;;5009031;28;98786;-70
2022/11/23 10:29:49;;;;;;;8.75;2.42;;;;;;;;;;5004060;28;100779;-70
2022/11/23 10:32:23;;;;;;;12.45;3.35;;;;;;;;;;5005444;28;98789;-70
2022/11/23 10:34:55;;;;;;;21.90;3.83;;;;;;;;;;5006967;28;99888;-70
2022/11/23 10:37:22;;;;;;;15.27;3.00;;;;;;;;;;5007301;28;99400;-71
2022/11/23 10:39:48;;;;;;;19.00;3.80;;;;;;;;;;5007665;28;98452;-69
2022/11/23 10:42:17;;;;;;;12.15;3.50;;;;;;;;;;4995778;28;101642;-70
2022/11/23 10:44:46;;;;;;;11.68;3.42;;;;;;;;;;4987711;28;100117;-70
2022/11/23 10:47:32;;;;;;;15.98;3.60;;;;;;;;;;4995493;28;98365;-70
2022/11/23 10:49:58;;;;;;;15.18;3.25;;;;;;;;;;5006836;28;99966;-74
2022/11/23 10:52:27;;;;;;;9.85;2.90;;;;;;;;;;5008297;28;98543;-73
2022/11/23 10:54:55;;;;;;;11.10;2.95;;;;;;;;;;5008324;28;98803;-74
2022/11/23 10:57:30;;;;;;;12.63;2.88;;;;;;;;;;5006179;28;99014;-71
2022/11/23 10:59:58;;;;;;;9.15;2.83;;;;;;;;;;5005117;28;98534;-70
2022/11/23 11:02:25;;;;;;;11.15;3.35;;;;;;;;;;5006553;28;100106;-70
2022/11/23 11:05:10;;;;;;;14.35;3.08;;;;;;;;;;5004102;28;99225;-70
2022/11/23 11:07:38;;;;;;;15.95;3.80;;;;;;;;;;5006960;28;98343;-70
2022/11/23 11:10:04;;;;;;;10.85;2.67;;;;;;;;;;5009237;28;98443;-70
2022/11/23 11:12:33;;;;;;;15.52;2.95;;;;;;;;;;5007001;28;98437;-70
2022/11/23 11:15:02;;;;;;;13.73;2.92;;;;;;;;;;5005643;28;98827;-70
2022/11/23 11:17:38;;;;;;;10.82;2.60;;;;;;;;;;5004819;28;99975;-70
2022/11/23 11:20:27;;;;;;;11.93;3.90;;;;;;;;;;5006158;28;98292;-70
2022/11/23 11:22:54;;;;;;;10.70;3.25;;;;;;;;;;5000556;28;98989;-70
2022/11/23 11:25:29;;;;;;;12.40;3.72;;;;;;;;;;5008042;28;100151;-70
2022/11/23 11:27:57;;;;;;;10.80;2.40;;;;;;;;;;5007859;28;98544;-70
2022/11/23 11:30:24;;;;;;;16.00;3.70;;;;;;;;;;5001478;28;99806;-70
2022/11/23 11:32:59;;;;;;;16.17;3.10;;;;;;;;;;5005829;28;99742;-70
2022/11/23 11:35:27;;;;;;;14.32;3.15;;;;;;;;;;4992235;28;99556;-69
2022/11/23 11:38:03;;;;;;;13.95;3.10;;;;;;;;;;5001321;28;99266;-70
2022/11/23 11:40:34;;;;;;;10.07;2.95;;;;;;;;;;4998085;28;98318;-70
2022/11/23 11:43:02;;;;;;;10.82;3.40;;;;;;;;;;5008252;28;99395;-72
2022/11/23 11:45:35;;;;;;;12.88;3.60;;;;;;;;;;5007590;28;99937;-70
2022/11/23 11:48:05;;;;;;;12.80;3.78;;;;;;;;;;4991833;28;101323;-72
2022/11/23 11:50:35;;;;;;;16.52;3.55;;;;;;;;;;5005708;28;99467;-72
2022/11/23 11:53:03;;;;;;;12.80;3.67;;;;;;;;;;5001980;28;100157;-71
2022/11/23 11:55:35;;;;;;;11.60;3.17;;;;;;;;;;5004783;28;98474;-72
2022/11/23 11:58:03;;;;;;;18.83;4.15;;;;;;;;;;5006589;28;100100;-72
2022/11/23 12:00:32;;;;;;;17.02;2.70;;;;;;;;;;5006562;28;98314;-72
2022/11/23 12:03:21;;;;;;;13.10;3.22;;;;;;;;;;5007287;28;99899;-72
2022/11/23 12:05:50;;;;;;;19.13;2.63;;;;;;;;;;5004747;28;99279;-70
2022/11/23 12:08:33;;;;;;;10.82;3.25;;;;;;;;;;5005478;28;98229;-71
2022/11/23 12:11:01;;;;;;;13.52;3.50;;;;;;;;;;4999397;28;98522;-71
2022/11/23 12:13:37;;;;;;;14.18;3.20;;;;;;;;;;5005132;28;99038;-71
2022/11/23 12:16:19;;;;;;;11.15;2.95;;;;;;;;;;4997118;28;98692;-71
2022/11/23 12:18:48;;;;;;;13.98;3.25;;;;;;;;;;5005937;28;99066;-72
2022/11/23 12:21:16;;;;;;;30.42;5.50;;;;;;;;;;5007574;28;98224;-71
2022/11/23 12:23:58;;;;;;;13.30;3.13;;;;;;;;;;4998110;28;100492;-70
2022/11/23 12:26:37;;;;;;;16.17;3.45;;;;;;;;;;4986835;28;100515;-71
2022/11/23 12:29:07;;;;;;;11.95;2.90;;;;;;;;;;4990698;28;98437;-71
2022/11/23 12:31:42;;;;;;;7.53;2.25;;;;;;;;;;4987238;28;98862;-72
2022/11/23 12:34:18;;;;;;;12.93;2.50;;;;;;;;;;5004621;28;100158;-71
2022/11/23 12:36:47;;;;;;;18.05;4.05;;;;;;;;;;5004543;28;99003;-70
2022/11/23 12:39:30;;;;;;;11.80;4.15;;;;;;;;;;5008843;28;98634;-71
2022/11/23 12:42:05;;;;;;;19.67;3.15;;;;;;;;;;5002869;28;98283;-71
2022/11/23 12:44:38;;;;;;;11.05;2.60;;;;;;;;;;5006056;28;99552;-72
2022/11/23 12:47:14;;;;;;;7.35;2.03;;;;;;;;;;4999354;28;99353;-71
2022/11/23 12:49:47;;;;;;;10.02;2.50;;;;;;;;;;4997254;28;98318;-72
2022/11/23 12:52:22;;;;;;;10.98;2.50;;;;;;;;;;4999926;28;99497;-71
2022/11/23 12:54:49;;;;;;;7.63;2.50;;;;;;;;;;5004682;28;100587;-72
2022/11/23 12:57:28;;;;;;;10.18;2.63;;;;;;;;;;5005136;28;98346;-71
2022/11/23 13:00:07;;;;;;;9.48;2.22;;;;;;;;;;5003767;28;98651;-71
2022/11/23 13:02:35;;;;;;;4.47;1.48;;;;;;;;;;5002964;28;99959;-70
2022/11/23 13:05:16;;;;;;;12.50;2.40;;;;;;;;;;5002942;28;100012;-71
2022/11/23 13:08:01;;;;;;;14.15;3.03;;;;;;;;;;5004666;28;99132;-71
2022/11/23 13:10:46;;;;;;;12.18;2.60;;;;;;;;;;4989190;28;98327;-72
2022/11/23 13:13:12;;;;;;;7.72;2.60;;;;;;;;;;5003042;28;99827;-72
2022/11/23 13:16:05;;;;;;;7.35;2.45;;;;;;;;;;4997456;28;99930;-70
2022/11/23 13:18:52;;;;;;;8.20;2.42;;;;;;;;;;5000237;28;98863;-70
2022/11/23 13:21:21;;;;;;;7.53;2.08;;;;;;;;;;4999833;28;99066;-70
2022/11/23 13:23:51;;;;;;;8.75;2.30;;;;;;;;;;4997104;28;100580;-71
2022/11/23 13:26:19;;;;;;;8.35;2.10;;;;;;;;;;5002453;28;100071;-71
2022/11/23 13:28:47;;;;;;;10.77;3.10;;;;;;;;;;5000336;28;100436;-70
2022/11/23 13:31:13;;;;;;;8.00;2.20;;;;;;;;;;4992330;28;98293;-71
2022/11/23 13:33:42;;;;;;;9.88;2.47;;;;;;;;;;4986592;28;100303;-71
2022/11/23 13:36:32;;;;;;;13.90;2.13;;;;;;;;;;5002355;28;100151;-72
2022/11/23 13:39:38;;;;;;;9.13;2.67;;;;;;;;;;4999512;28;98347;-71
2022/11/23 13:42:08;;;;;;;8.93;2.30;;;;;;;;;;4986130;28;99586;-71
2022/11/23 13:44:34;;;;;;;7.28;2.33;;;;;;;;;;5000416;28;99251;-72
2022/11/23 13:47:02;;;;;;;10.65;2.70;;;;;;;;;;5004683;28;100138;-70
2022/11/23 13:49:30;;;;;;;7.45;2.17;;;;;;;;;;5008598;28;99836;-71
2022/11/23 13:52:05;;;;;;;5.50;2.40;;;;;;;;;;5001404;28;98152;-71
2022/11/23 13:54:32;;;;;;;7.90;2.08;;;;;;;;;;4998486;28;98666;-70
2022/11/23 13:57:01;;;;;;;11.50;2.08;;;;;;;;;;4993952;28;99069;-72
2022/11/23 13:59:31;;;;;;;5.72;2.20;;;;;;;;;;5004870;28;98742;-71
2022/11/23 14:02:06;;;;;;;8.85;1.98;;;;;;;;;;5005487;28;99715;-69
2022/11/23 14:04:33;;;;;;;4.50;1.60;;;;;;;;;;5003953;28;99988;-70
2022/11/23 14:07:05;;;;;;;13.55;2.33;;;;;;;;;;5004884;28;98355;-70
2022/11/23 14:09:34;;;;;;;5.93;1.83;;;;;;;;;;5001588;28;99339;-71
2022/11/23 14:12:11;;;;;;;11.18;2.50;;;;;;;;;;5004301;28;99806;-73
2022/11/23 14:14:40;;;;;;;4.82;1.70;;;;;;;;;;4987112;28;98548;-72
2022/11/23 14:17:22;;;;;;;6.35;1.80;;;;;;;;;;4994534;28;100094;-73
2022/11/23 14:20:07;;;;;;;5.70;1.90;;;;;;;;;;5004966;28;98251;-71
2022/11/23 14:22:52;;;;;;;9.40;2.25;;;;;;;;;;4999242;28;99933;-72
2022/11/23 14:25:27;;;;;;;18.80;3.15;;;;;;;;;;5000201;28;100134;-72
2022/11/23 14:27:59;;;;;;;10.55;2.08;;;;;;;;;;4985928;28;98200;-72
2022/11/23 14:30:37;;;;;;;7.07;2.20;;;;;;;;;;4985207;28;99549;-74
2022/11/23 14:33:22;;;;;;;7.32;2.00;;;;;;;;;;4989057;28;100281;-71
2022/11/23 14:36:07;;;;;;;7.60;1.95;;;;;;;;;;5006991;28;99956;-71
2022/11/23 14:38:52;;;;;;;10.32;2.35;;;;;;;;;;5007788;28;99319;-71
2022/11/23 14:41:27;;;;;;;8.23;2.30;;;;;;;;;;5009175;28;98216;-71
2022/11/23 14:43:54;;;;;;;12.60;2.53;;;;;;;;;;4998971;28;99571;-72
2022/11/23 14:46:24;;;;;;;12.77;2.55;;;;;;;;;;4987959;28;100112;-71
2022/11/23 14:48:51;;;;;;;8.32;2.20;;;;;;;;;;4992519;28;98847;-72
2022/11/23 14:51:26;;;;;;;7.88;2.75;;;;;;;;;;5006893;28;101322;-71
2022/11/23 14:53:55;;;;;;;12.40;2.55;;;;;;;;;;5006344;28;100256;-72
2022/11/23 14:56:40;;;;;;;7.97;2.20;;;;;;;;;;5012115;28;98239;-72
2022/11/23 14:59:17;;;;;;;9.43;3.10;;;;;;;;;;5009044;28;100164;-72
2022/11/23 15:01:48;;;;;;;7.85;2.20;;;;;;;;;;5008036;28;98179;-72
2022/11/23 15:04:41;;;;;;;11.13;2.30;;;;;;;;;;5008794;28;99439;-71
2022/11/23 15:07:15;;;;;;;6.45;1.95;;;;;;;;;;4977533;28;100268;-71
2022/11/23 15:09:48;;;;;;;10.05;2.47;;;;;;;;;;5008413;28;98265;-71
2022/11/23 15:12:17;;;;;;;9.75;2.17;;;;;;;;;;5006841;28;99361;-70
2022/11/23 15:14:44;;;;;;;6.45;2.67;;;;;;;;;;5003996;28;100309;-70
2022/11/23 15:17:12;;;;;;;4.82;2.17;;;;;;;;;;5009073;28;98240;-71
2022/11/23 15:19:38;;;;;;;9.38;2.70;;;;;;;;;;5011024;28;100360;-71
2022/11/23 15:22:10;;;;;;;9.40;2.13;;;;;;;;;;5008689;28;98261;-70
2022/11/23 15:24:37;;;;;;;11.18;2.63;;;;;;;;;;5008102;28;99423;-71
2022/11/23 15:27:04;;;;;;;9.60;2.33;;;;;;;;;;5006965;28;100515;-71
2022/11/23 15:29:38;;;;;;;7.68;2.20;;;;;;;;;;5008027;28;98166;-70
2022/11/23 15:32:22;;;;;;;12.05;2.25;;;;;;;;;;5007977;28;99537;-70
2022/11/23 15:35:01;;;;;;;7.47;2.42;;;;;;;;;;5007772;28;99824;-70
2022/11/23 15:37:28;;;;;;;6.60;2.58;;;;;;;;;;5008209;28;98803;-70
2022/11/23 15:39:55;;;;;;;8.23;2.70;;;;;;;;;;5008226;28;99519;-71
2022/11/23 15:42:23;;;;;;;8.90;2.50;;;;;;;;;;5010809;28;99910;-71
2022/11/23 15:44:50;;;;;;;5.13;2.33;;;;;;;;;;5008440;28;99309;-71
2022/11/23 15:47:25;;;;;;;6.60;2.47;;;;;;;;;;5006841;28;100085;-70
2022/11/23 15:50:00;;;;;;;11.52;2.85;;;;;;;;;;5007452;28;98282;-72
2022/11/23 15:52:28;;;;;;;9.80;2.47;;;;;;;;;;5006425;28;99529;-70
2022/11/23 15:54:55;;;;;;;9.82;2.38;;;;;;;;;;5005437;28;100065;-70
2022/11/23 15:57:23;;;;;;;7.03;2.53;;;;;;;;;;4990869;28;98312;-70
2022/11/23 15:59:55;;;;;;;7.57;2.42;;;;;;;;;;4987380;28;98437;-71
2022/11/23 16:02:23;;;;;;;12.32;3.05;;;;;;;;;;4987126;28;99188;-71
2022/11/23 16:05:21;;;;;;;6.43;2.40;;;;;;;;;;4991083;28;98264;-71
2022/11/23 16:07:56;;;;;;;3.70;2.10;;;;;;;;;;4943552;28;99843;-71